sensor_id;sensor_type;location;lat;lon;timestamp;P1;durP1;ratioP1;P2;durP2;ratioP2
50309;SDS011;36207;51.850;21.698;2024-01-16T00:01:53;2.90;;;1.60;;
50309;SDS011;36207;51.850;21.698;2024-01-16T00:04:20;3.40;;;1.90;;
50309;SDS011;36207;51.850;21.698;2024-01-16T00:06:46;2.20;;;1.50;;
50309;SDS011;36207;51.850;21.698;2024-01-16T00:09:12;4.70;;;2.00;;
50309;SDS011;36207;51.850;21.698;2024-01-16T00:11:44;2.40;;;1.60;;
50309;SDS011;36207;51.850;21.698;2024-01-16T00:14:10;3.30;;;2.30;;
50309;SDS011;36207;51.850;21.698;2024-01-16T00:16:45;4.00;;;2.00;;
50309;SDS011;36207;51.850;21.698;2024-01-16T00:19:13;5.60;;;2.00;;
50309;SDS011;36207;51.850;21.698;2024-01-16T00:21:43;2.70;;;1.70;;
50309;SDS011;36207;51.850;21.698;2024-01-16T00:24:12;3.60;;;1.90;;
50309;SDS011;36207;51.850;21.698;2024-01-16T00:26:39;3.10;;;1.80;;
50309;SDS011;36207;51.850;21.698;2024-01-16T00:29:05;3.40;;;2.10;;
50309;SDS011;36207;51.850;21.698;2024-01-16T00:31:31;5.70;;;2.10;;
50309;SDS011;36207;51.850;21.698;2024-01-16T00:33:57;4.50;;;2.10;;
50309;SDS011;36207;51.850;21.698;2024-01-16T00:36:23;2.60;;;1.90;;
50309;SDS011;36207;51.850;21.698;2024-01-16T00:38:49;5.90;;;2.10;;
50309;SDS011;36207;51.850;21.698;2024-01-16T00:41:15;4.00;;;1.90;;
50309;SDS011;36207;51.850;21.698;2024-01-16T00:43:42;2.50;;;1.70;;
50309;SDS011;36207;51.850;21.698;2024-01-16T00:46:09;3.00;;;1.70;;
50309;SDS011;36207;51.850;21.698;2024-01-16T00:48:35;3.00;;;1.80;;
50309;SDS011;36207;51.850;21.698;2024-01-16T00:51:01;3.30;;;1.80;;
50309;SDS011;36207;51.850;21.698;2024-01-16T00:53:27;4.30;;;1.90;;
50309;SDS011;36207;51.850;21.698;2024-01-16T00:55:53;3.30;;;1.90;;
50309;SDS011;36207;51.850;21.698;2024-01-16T00:58:21;3.30;;;1.70;;
50309;SDS011;36207;51.850;21.698;2024-01-16T01:00:47;2.60;;;1.80;;
50309;SDS011;36207;51.850;21.698;2024-01-16T01:03:14;3.60;;;1.80;;
50309;SDS011;36207;51.850;21.698;2024-01-16T01:05:40;2.40;;;1.70;;
50309;SDS011;36207;51.850;21.698;2024-01-16T01:08:06;2.70;;;1.60;;
50309;SDS011;36207;51.850;21.698;2024-01-16T01:10:33;2.40;;;1.70;;
50309;SDS011;36207;51.850;21.698;2024-01-16T01:12:59;2.60;;;1.80;;
50309;SDS011;36207;51.850;21.698;2024-01-16T01:15:25;2.50;;;1.80;;
50309;SDS011;36207;51.850;21.698;2024-01-16T01:17:51;4.80;;;1.80;;
50309;SDS011;36207;51.850;21.698;2024-01-16T01:20:18;1.90;;;1.30;;
50309;SDS011;36207;51.850;21.698;2024-01-16T01:22:45;3.70;;;2.00;;
50309;SDS011;36207;51.850;21.698;2024-01-16T01:25:11;3.00;;;1.80;;
50309;SDS011;36207;51.850;21.698;2024-01-16T01:27:39;3.10;;;1.80;;
50309;SDS011;36207;51.850;21.698;2024-01-16T01:30:06;3.80;;;1.90;;
50309;SDS011;36207;51.850;21.698;2024-01-16T01:32:38;3.10;;;1.80;;
50309;SDS011;36207;51.850;21.698;2024-01-16T01:35:05;4.20;;;2.00;;
50309;SDS011;36207;51.850;21.698;2024-01-16T01:37:31;3.90;;;2.00;;
50309;SDS011;36207;51.850;21.698;2024-01-16T01:39:57;3.20;;;2.00;;
50309;SDS011;36207;51.850;21.698;2024-01-16T01:42:23;3.60;;;2.00;;
50309;SDS011;36207;51.850;21.698;2024-01-16T01:44:49;5.20;;;2.20;;
50309;SDS011;36207;51.850;21.698;2024-01-16T01:47:15;3.10;;;1.90;;
50309;SDS011;36207;51.850;21.698;2024-01-16T01:49:41;4.40;;;2.20;;
50309;SDS011;36207;51.850;21.698;2024-01-16T01:52:07;4.50;;;2.30;;
50309;SDS011;36207;51.850;21.698;2024-01-16T01:54:35;2.90;;;1.70;;
50309;SDS011;36207;51.850;21.698;2024-01-16T01:57:02;2.90;;;1.70;;
50309;SDS011;36207;51.850;21.698;2024-01-16T01:59:29;2.90;;;1.80;;
50309;SDS011;36207;51.850;21.698;2024-01-16T02:01:57;1.90;;;1.30;;
50309;SDS011;36207;51.850;21.698;2024-01-16T02:04:23;2.90;;;2.00;;
50309;SDS011;36207;51.850;21.698;2024-01-16T02:06:51;3.20;;;1.90;;
50309;SDS011;36207;51.850;21.698;2024-01-16T02:09:17;4.30;;;2.10;;
50309;SDS011;36207;51.850;21.698;2024-01-16T02:11:43;4.70;;;2.10;;
50309;SDS011;36207;51.850;21.698;2024-01-16T02:14:09;2.60;;;1.70;;
50309;SDS011;36207;51.850;21.698;2024-01-16T02:16:39;5.30;;;1.90;;
50309;SDS011;36207;51.850;21.698;2024-01-16T02:19:06;3.70;;;2.00;;
50309;SDS011;36207;51.850;21.698;2024-01-16T02:21:37;3.30;;;2.00;;
50309;SDS011;36207;51.850;21.698;2024-01-16T02:24:17;4.00;;;2.30;;
50309;SDS011;36207;51.850;21.698;2024-01-16T02:26:44;4.10;;;2.40;;
50309;SDS011;36207;51.850;21.698;2024-01-16T02:29:10;2.30;;;2.00;;
50309;SDS011;36207;51.850;21.698;2024-01-16T02:31:37;5.80;;;2.60;;
50309;SDS011;36207;51.850;21.698;2024-01-16T02:34:03;4.80;;;2.20;;
50309;SDS011;36207;51.850;21.698;2024-01-16T02:36:29;3.80;;;2.30;;
50309;SDS011;36207;51.850;21.698;2024-01-16T02:38:56;2.80;;;2.20;;
50309;SDS011;36207;51.850;21.698;2024-01-16T02:41:22;4.80;;;2.40;;
50309;SDS011;36207;51.850;21.698;2024-01-16T02:43:48;6.40;;;2.40;;
50309;SDS011;36207;51.850;21.698;2024-01-16T02:46:14;3.60;;;2.40;;
50309;SDS011;36207;51.850;21.698;2024-01-16T02:48:41;3.30;;;2.30;;
50309;SDS011;36207;51.850;21.698;2024-01-16T02:51:08;3.40;;;2.30;;
50309;SDS011;36207;51.850;21.698;2024-01-16T02:53:34;4.70;;;2.40;;
50309;SDS011;36207;51.850;21.698;2024-01-16T02:56:01;3.70;;;2.50;;
50309;SDS011;36207;51.850;21.698;2024-01-16T02:58:27;4.00;;;2.40;;
50309;SDS011;36207;51.850;21.698;2024-01-16T03:00:55;4.30;;;2.20;;
50309;SDS011;36207;51.850;21.698;2024-01-16T03:03:21;4.20;;;2.30;;
50309;SDS011;36207;51.850;21.698;2024-01-16T03:05:47;4.80;;;2.90;;
50309;SDS011;36207;51.850;21.698;2024-01-16T03:08:13;4.00;;;2.70;;
50309;SDS011;36207;51.850;21.698;2024-01-16T03:10:39;3.80;;;2.60;;
50309;SDS011;36207;51.850;21.698;2024-01-16T03:13:05;4.70;;;2.90;;
50309;SDS011;36207;51.850;21.698;2024-01-16T03:15:31;4.80;;;2.80;;
50309;SDS011;36207;51.850;21.698;2024-01-16T03:17:57;4.00;;;2.70;;
50309;SDS011;36207;51.850;21.698;2024-01-16T03:20:24;4.40;;;2.60;;
50309;SDS011;36207;51.850;21.698;2024-01-16T03:22:50;4.30;;;2.70;;
50309;SDS011;36207;51.850;21.698;2024-01-16T03:25:16;4.40;;;2.70;;
50309;SDS011;36207;51.850;21.698;2024-01-16T03:27:42;4.20;;;2.40;;
50309;SDS011;36207;51.850;21.698;2024-01-16T03:30:10;4.20;;;2.90;;
50309;SDS011;36207;51.850;21.698;2024-01-16T03:32:36;4.70;;;2.40;;
50309;SDS011;36207;51.850;21.698;2024-01-16T03:35:03;5.00;;;2.90;;
50309;SDS011;36207;51.850;21.698;2024-01-16T03:37:30;3.80;;;2.60;;
50309;SDS011;36207;51.850;21.698;2024-01-16T03:39:56;4.90;;;2.60;;
50309;SDS011;36207;51.850;21.698;2024-01-16T03:42:23;7.10;;;2.80;;
50309;SDS011;36207;51.850;21.698;2024-01-16T03:44:49;4.90;;;3.00;;
50309;SDS011;36207;51.850;21.698;2024-01-16T03:47:15;5.00;;;3.00;;
50309;SDS011;36207;51.850;21.698;2024-01-16T03:49:41;5.50;;;3.00;;
50309;SDS011;36207;51.850;21.698;2024-01-16T03:52:07;5.10;;;2.70;;
50309;SDS011;36207;51.850;21.698;2024-01-16T03:54:34;7.60;;;3.20;;
50309;SDS011;36207;51.850;21.698;2024-01-16T03:56:59;4.40;;;2.80;;
50309;SDS011;36207;51.850;21.698;2024-01-16T03:59:26;7.00;;;2.90;;
50309;SDS011;36207;51.850;21.698;2024-01-16T04:01:52;7.10;;;3.40;;
50309;SDS011;36207;51.850;21.698;2024-01-16T04:04:18;6.40;;;3.20;;
50309;SDS011;36207;51.850;21.698;2024-01-16T04:06:45;6.70;;;3.10;;
50309;SDS011;36207;51.850;21.698;2024-01-16T04:09:12;4.50;;;2.90;;
50309;SDS011;36207;51.850;21.698;2024-01-16T04:11:40;4.90;;;3.30;;
50309;SDS011;36207;51.850;21.698;2024-01-16T04:14:05;5.70;;;3.60;;
50309;SDS011;36207;51.850;21.698;2024-01-16T04:16:32;7.20;;;3.50;;
50309;SDS011;36207;51.850;21.698;2024-01-16T04:18:57;8.30;;;3.50;;
50309;SDS011;36207;51.850;21.698;2024-01-16T04:21:24;6.50;;;3.50;;
50309;SDS011;36207;51.850;21.698;2024-01-16T04:23:50;5.70;;;3.10;;
50309;SDS011;36207;51.850;21.698;2024-01-16T04:26:16;6.00;;;3.30;;
50309;SDS011;36207;51.850;21.698;2024-01-16T04:28:42;5.30;;;3.20;;
50309;SDS011;36207;51.850;21.698;2024-01-16T04:31:08;5.50;;;3.50;;
50309;SDS011;36207;51.850;21.698;2024-01-16T04:33:35;6.60;;;3.50;;
50309;SDS011;36207;51.850;21.698;2024-01-16T04:36:01;6.20;;;3.50;;
50309;SDS011;36207;51.850;21.698;2024-01-16T04:38:26;5.10;;;3.10;;
50309;SDS011;36207;51.850;21.698;2024-01-16T04:40:52;7.20;;;3.60;;
50309;SDS011;36207;51.850;21.698;2024-01-16T04:43:18;5.20;;;3.50;;
50309;SDS011;36207;51.850;21.698;2024-01-16T04:45:45;5.40;;;3.30;;
50309;SDS011;36207;51.850;21.698;2024-01-16T04:48:11;5.30;;;3.20;;
50309;SDS011;36207;51.850;21.698;2024-01-16T04:50:37;6.40;;;3.20;;
50309;SDS011;36207;51.850;21.698;2024-01-16T04:53:03;6.30;;;3.50;;
50309;SDS011;36207;51.850;21.698;2024-01-16T04:55:29;6.40;;;2.90;;
50309;SDS011;36207;51.850;21.698;2024-01-16T04:57:55;5.10;;;2.90;;
50309;SDS011;36207;51.850;21.698;2024-01-16T05:00:23;5.90;;;3.00;;
50309;SDS011;36207;51.850;21.698;2024-01-16T05:02:49;4.70;;;2.70;;
50309;SDS011;36207;51.850;21.698;2024-01-16T05:05:16;5.20;;;3.10;;
50309;SDS011;36207;51.850;21.698;2024-01-16T05:07:43;5.50;;;3.00;;
50309;SDS011;36207;51.850;21.698;2024-01-16T05:10:09;4.90;;;3.00;;
50309;SDS011;36207;51.850;21.698;2024-01-16T05:12:38;6.10;;;3.00;;
50309;SDS011;36207;51.850;21.698;2024-01-16T05:15:07;9.30;;;3.20;;
50309;SDS011;36207;51.850;21.698;2024-01-16T05:17:34;6.60;;;3.00;;
50309;SDS011;36207;51.850;21.698;2024-01-16T05:20:01;7.20;;;3.00;;
50309;SDS011;36207;51.850;21.698;2024-01-16T05:22:29;5.70;;;3.30;;
50309;SDS011;36207;51.850;21.698;2024-01-16T05:24:55;5.00;;;2.90;;
50309;SDS011;36207;51.850;21.698;2024-01-16T05:27:21;5.10;;;3.20;;
50309;SDS011;36207;51.850;21.698;2024-01-16T05:29:47;4.90;;;2.80;;
50309;SDS011;36207;51.850;21.698;2024-01-16T05:32:13;7.40;;;3.10;;
50309;SDS011;36207;51.850;21.698;2024-01-16T05:34:39;6.00;;;3.30;;
50309;SDS011;36207;51.850;21.698;2024-01-16T05:37:05;8.70;;;3.80;;
50309;SDS011;36207;51.850;21.698;2024-01-16T05:39:31;5.90;;;3.20;;
50309;SDS011;36207;51.850;21.698;2024-01-16T05:41:57;6.20;;;3.30;;
50309;SDS011;36207;51.850;21.698;2024-01-16T05:44:23;6.60;;;3.50;;
50309;SDS011;36207;51.850;21.698;2024-01-16T05:46:49;7.10;;;3.40;;
50309;SDS011;36207;51.850;21.698;2024-01-16T05:49:15;5.20;;;3.10;;
50309;SDS011;36207;51.850;21.698;2024-01-16T05:51:41;5.90;;;2.80;;
50309;SDS011;36207;51.850;21.698;2024-01-16T05:54:07;5.40;;;3.20;;
50309;SDS011;36207;51.850;21.698;2024-01-16T05:56:33;6.00;;;3.00;;
50309;SDS011;36207;51.850;21.698;2024-01-16T05:58:59;6.10;;;3.10;;
50309;SDS011;36207;51.850;21.698;2024-01-16T06:01:25;6.30;;;3.30;;
50309;SDS011;36207;51.850;21.698;2024-01-16T06:03:53;6.40;;;3.30;;
50309;SDS011;36207;51.850;21.698;2024-01-16T06:06:19;6.10;;;3.30;;
50309;SDS011;36207;51.850;21.698;2024-01-16T06:08:44;7.80;;;3.90;;
50309;SDS011;36207;51.850;21.698;2024-01-16T06:11:11;8.10;;;3.70;;
50309;SDS011;36207;51.850;21.698;2024-01-16T06:13:38;10.30;;;4.30;;
50309;SDS011;36207;51.850;21.698;2024-01-16T06:16:08;8.50;;;3.90;;
50309;SDS011;36207;51.850;21.698;2024-01-16T06:18:34;8.50;;;4.20;;
50309;SDS011;36207;51.850;21.698;2024-01-16T06:21:01;8.30;;;4.00;;
50309;SDS011;36207;51.850;21.698;2024-01-16T06:23:28;7.80;;;3.60;;
50309;SDS011;36207;51.850;21.698;2024-01-16T06:25:54;8.00;;;3.40;;
50309;SDS011;36207;51.850;21.698;2024-01-16T06:28:20;6.90;;;3.60;;
50309;SDS011;36207;51.850;21.698;2024-01-16T06:30:46;6.70;;;3.30;;
50309;SDS011;36207;51.850;21.698;2024-01-16T06:33:12;9.00;;;3.50;;
50309;SDS011;36207;51.850;21.698;2024-01-16T06:35:38;6.30;;;3.70;;
50309;SDS011;36207;51.850;21.698;2024-01-16T06:38:04;7.30;;;3.80;;
50309;SDS011;36207;51.850;21.698;2024-01-16T06:40:30;8.00;;;3.70;;
50309;SDS011;36207;51.850;21.698;2024-01-16T06:42:56;6.90;;;3.70;;
50309;SDS011;36207;51.850;21.698;2024-01-16T06:45:22;7.30;;;3.80;;
50309;SDS011;36207;51.850;21.698;2024-01-16T06:47:48;7.00;;;3.80;;
50309;SDS011;36207;51.850;21.698;2024-01-16T06:50:14;8.20;;;4.00;;
50309;SDS011;36207;51.850;21.698;2024-01-16T06:52:40;10.70;;;4.00;;
50309;SDS011;36207;51.850;21.698;2024-01-16T06:55:06;7.20;;;3.70;;
50309;SDS011;36207;51.850;21.698;2024-01-16T06:57:32;7.40;;;4.10;;
50309;SDS011;36207;51.850;21.698;2024-01-16T06:59:58;9.30;;;4.20;;
50309;SDS011;36207;51.850;21.698;2024-01-16T07:02:23;7.40;;;3.50;;
50309;SDS011;36207;51.850;21.698;2024-01-16T07:04:49;7.30;;;3.50;;
50309;SDS011;36207;51.850;21.698;2024-01-16T07:07:15;7.10;;;4.00;;
50309;SDS011;36207;51.850;21.698;2024-01-16T07:09:41;7.80;;;3.90;;
50309;SDS011;36207;51.850;21.698;2024-01-16T07:12:07;9.50;;;3.90;;
50309;SDS011;36207;51.850;21.698;2024-01-16T07:14:33;9.70;;;3.70;;
50309;SDS011;36207;51.850;21.698;2024-01-16T07:16:59;7.70;;;3.70;;
50309;SDS011;36207;51.850;21.698;2024-01-16T07:19:25;6.50;;;3.10;;
50309;SDS011;36207;51.850;21.698;2024-01-16T07:21:51;7.30;;;3.30;;
50309;SDS011;36207;51.850;21.698;2024-01-16T07:24:17;6.70;;;3.70;;
50309;SDS011;36207;51.850;21.698;2024-01-16T07:26:43;7.50;;;3.40;;
50309;SDS011;36207;51.850;21.698;2024-01-16T07:29:09;7.50;;;3.60;;
50309;SDS011;36207;51.850;21.698;2024-01-16T07:31:34;7.60;;;3.60;;
50309;SDS011;36207;51.850;21.698;2024-01-16T07:34:00;6.00;;;3.50;;
50309;SDS011;36207;51.850;21.698;2024-01-16T07:36:27;6.80;;;3.60;;
50309;SDS011;36207;51.850;21.698;2024-01-16T07:38:53;7.30;;;3.90;;
50309;SDS011;36207;51.850;21.698;2024-01-16T07:41:19;8.70;;;4.10;;
50309;SDS011;36207;51.850;21.698;2024-01-16T07:43:44;8.30;;;4.30;;
50309;SDS011;36207;51.850;21.698;2024-01-16T07:46:10;8.10;;;4.20;;
50309;SDS011;36207;51.850;21.698;2024-01-16T07:48:36;9.80;;;4.40;;
50309;SDS011;36207;51.850;21.698;2024-01-16T07:51:03;11.00;;;4.10;;
50309;SDS011;36207;51.850;21.698;2024-01-16T07:53:29;8.80;;;4.10;;
50309;SDS011;36207;51.850;21.698;2024-01-16T07:55:55;8.70;;;4.00;;
50309;SDS011;36207;51.850;21.698;2024-01-16T07:58:21;9.30;;;4.20;;
50309;SDS011;36207;51.850;21.698;2024-01-16T08:00:47;10.10;;;4.20;;
50309;SDS011;36207;51.850;21.698;2024-01-16T08:03:14;7.60;;;3.80;;
50309;SDS011;36207;51.850;21.698;2024-01-16T08:05:40;9.10;;;4.00;;
50309;SDS011;36207;51.850;21.698;2024-01-16T08:08:09;8.50;;;4.00;;
50309;SDS011;36207;51.850;21.698;2024-01-16T08:10:35;7.10;;;3.70;;
50309;SDS011;36207;51.850;21.698;2024-01-16T08:13:01;7.90;;;4.00;;
50309;SDS011;36207;51.850;21.698;2024-01-16T08:15:27;9.70;;;4.20;;
50309;SDS011;36207;51.850;21.698;2024-01-16T08:17:53;9.10;;;4.10;;
50309;SDS011;36207;51.850;21.698;2024-01-16T08:20:19;9.00;;;4.20;;
50309;SDS011;36207;51.850;21.698;2024-01-16T08:22:45;8.60;;;3.80;;
50309;SDS011;36207;51.850;21.698;2024-01-16T08:25:11;7.70;;;4.10;;
50309;SDS011;36207;51.850;21.698;2024-01-16T08:27:37;9.40;;;4.30;;
50309;SDS011;36207;51.850;21.698;2024-01-16T08:30:04;8.60;;;4.00;;
50309;SDS011;36207;51.850;21.698;2024-01-16T08:32:31;9.60;;;4.20;;
50309;SDS011;36207;51.850;21.698;2024-01-16T08:34:57;9.60;;;5.00;;
50309;SDS011;36207;51.850;21.698;2024-01-16T08:37:23;11.50;;;4.70;;
50309;SDS011;36207;51.850;21.698;2024-01-16T08:39:51;10.50;;;5.00;;
50309;SDS011;36207;51.850;21.698;2024-01-16T08:42:17;10.30;;;5.20;;
50309;SDS011;36207;51.850;21.698;2024-01-16T08:44:43;10.10;;;4.90;;
50309;SDS011;36207;51.850;21.698;2024-01-16T08:47:09;11.00;;;4.90;;
50309;SDS011;36207;51.850;21.698;2024-01-16T08:49:35;10.60;;;4.70;;
50309;SDS011;36207;51.850;21.698;2024-01-16T08:52:04;11.90;;;5.40;;
50309;SDS011;36207;51.850;21.698;2024-01-16T08:54:31;11.40;;;5.40;;
50309;SDS011;36207;51.850;21.698;2024-01-16T08:56:57;10.20;;;4.70;;
50309;SDS011;36207;51.850;21.698;2024-01-16T08:59:24;11.10;;;5.50;;
50309;SDS011;36207;51.850;21.698;2024-01-16T09:01:50;9.80;;;4.70;;
50309;SDS011;36207;51.850;21.698;2024-01-16T09:04:17;11.60;;;5.40;;
50309;SDS011;36207;51.850;21.698;2024-01-16T09:06:42;11.20;;;5.30;;
50309;SDS011;36207;51.850;21.698;2024-01-16T09:09:08;9.70;;;4.80;;
50309;SDS011;36207;51.850;21.698;2024-01-16T09:11:34;11.70;;;5.60;;
50309;SDS011;36207;51.850;21.698;2024-01-16T09:14:00;10.80;;;4.70;;
50309;SDS011;36207;51.850;21.698;2024-01-16T09:16:26;10.90;;;5.30;;
50309;SDS011;36207;51.850;21.698;2024-01-16T09:18:52;9.60;;;5.10;;
50309;SDS011;36207;51.850;21.698;2024-01-16T09:21:18;11.40;;;5.20;;
50309;SDS011;36207;51.850;21.698;2024-01-16T09:23:44;11.80;;;4.90;;
50309;SDS011;36207;51.850;21.698;2024-01-16T09:26:10;11.80;;;4.70;;
50309;SDS011;36207;51.850;21.698;2024-01-16T09:28:37;10.70;;;5.30;;
50309;SDS011;36207;51.850;21.698;2024-01-16T09:31:03;10.50;;;4.50;;
50309;SDS011;36207;51.850;21.698;2024-01-16T09:33:29;11.20;;;4.50;;
50309;SDS011;36207;51.850;21.698;2024-01-16T09:35:55;9.90;;;4.50;;
50309;SDS011;36207;51.850;21.698;2024-01-16T09:38:21;9.70;;;4.20;;
50309;SDS011;36207;51.850;21.698;2024-01-16T09:40:47;10.40;;;5.00;;
50309;SDS011;36207;51.850;21.698;2024-01-16T09:43:13;9.60;;;4.30;;
50309;SDS011;36207;51.850;21.698;2024-01-16T09:45:40;9.90;;;4.30;;
50309;SDS011;36207;51.850;21.698;2024-01-16T09:48:06;9.20;;;4.30;;
50309;SDS011;36207;51.850;21.698;2024-01-16T09:50:33;8.60;;;4.10;;
50309;SDS011;36207;51.850;21.698;2024-01-16T09:53:00;9.90;;;3.80;;
50309;SDS011;36207;51.850;21.698;2024-01-16T09:55:26;7.50;;;3.30;;
50309;SDS011;36207;51.850;21.698;2024-01-16T09:57:52;6.90;;;3.40;;
50309;SDS011;36207;51.850;21.698;2024-01-16T10:00:19;7.70;;;3.20;;
50309;SDS011;36207;51.850;21.698;2024-01-16T10:02:46;6.90;;;3.70;;
50309;SDS011;36207;51.850;21.698;2024-01-16T10:05:12;6.50;;;3.30;;
50309;SDS011;36207;51.850;21.698;2024-01-16T10:07:40;7.70;;;3.50;;
50309;SDS011;36207;51.850;21.698;2024-01-16T10:10:09;6.60;;;3.70;;
50309;SDS011;36207;51.850;21.698;2024-01-16T10:12:39;7.30;;;3.70;;
50309;SDS011;36207;51.850;21.698;2024-01-16T10:15:06;7.50;;;3.20;;
50309;SDS011;36207;51.850;21.698;2024-01-16T10:17:37;5.30;;;3.00;;
50309;SDS011;36207;51.850;21.698;2024-01-16T10:20:04;3.40;;;2.40;;
50309;SDS011;36207;51.850;21.698;2024-01-16T10:22:33;5.80;;;2.90;;
50309;SDS011;36207;51.850;21.698;2024-01-16T10:27:36;7.70;;;3.50;;
50309;SDS011;36207;51.850;21.698;2024-01-16T10:30:03;7.50;;;3.10;;
50309;SDS011;36207;51.850;21.698;2024-01-16T10:32:34;8.30;;;2.40;;
50309;SDS011;36207;51.850;21.698;2024-01-16T10:35:01;6.60;;;3.00;;
50309;SDS011;36207;51.850;21.698;2024-01-16T10:40:22;3.80;;;2.30;;
50309;SDS011;36207;51.850;21.698;2024-01-16T10:42:59;3.80;;;2.00;;
50309;SDS011;36207;51.850;21.698;2024-01-16T10:45:30;5.30;;;2.40;;
50309;SDS011;36207;51.850;21.698;2024-01-16T10:48:03;8.30;;;2.80;;
50309;SDS011;36207;51.850;21.698;2024-01-16T10:50:33;4.50;;;2.60;;
50309;SDS011;36207;51.850;21.698;2024-01-16T10:53:04;7.10;;;3.20;;
50309;SDS011;36207;51.850;21.698;2024-01-16T10:55:37;5.20;;;2.70;;
50309;SDS011;36207;51.850;21.698;2024-01-16T10:58:05;5.50;;;2.60;;
50309;SDS011;36207;51.850;21.698;2024-01-16T11:00:32;6.00;;;2.70;;
50309;SDS011;36207;51.850;21.698;2024-01-16T11:03:05;5.40;;;2.60;;
50309;SDS011;36207;51.850;21.698;2024-01-16T11:05:37;6.20;;;2.70;;
50309;SDS011;36207;51.850;21.698;2024-01-16T11:08:05;5.90;;;2.50;;
50309;SDS011;36207;51.850;21.698;2024-01-16T11:10:31;5.50;;;2.40;;
50309;SDS011;36207;51.850;21.698;2024-01-16T11:13:00;4.30;;;2.30;;
50309;SDS011;36207;51.850;21.698;2024-01-16T11:15:28;7.20;;;2.90;;
50309;SDS011;36207;51.850;21.698;2024-01-16T11:17:58;6.00;;;2.90;;
50309;SDS011;36207;51.850;21.698;2024-01-16T11:20:25;5.90;;;2.60;;
50309;SDS011;36207;51.850;21.698;2024-01-16T11:22:52;6.40;;;2.80;;
50309;SDS011;36207;51.850;21.698;2024-01-16T11:25:31;5.30;;;2.50;;
50309;SDS011;36207;51.850;21.698;2024-01-16T11:28:08;4.40;;;2.30;;
50309;SDS011;36207;51.850;21.698;2024-01-16T11:30:39;6.30;;;2.30;;
50309;SDS011;36207;51.850;21.698;2024-01-16T11:33:06;5.70;;;2.50;;
50309;SDS011;36207;51.850;21.698;2024-01-16T11:35:52;6.10;;;2.70;;
50309;SDS011;36207;51.850;21.698;2024-01-16T11:38:18;5.10;;;2.80;;
50309;SDS011;36207;51.850;21.698;2024-01-16T11:40:46;4.60;;;2.70;;
50309;SDS011;36207;51.850;21.698;2024-01-16T11:45:58;5.10;;;2.50;;
50309;SDS011;36207;51.850;21.698;2024-01-16T11:48:24;5.50;;;2.60;;
50309;SDS011;36207;51.850;21.698;2024-01-16T11:50:52;5.90;;;2.90;;
50309;SDS011;36207;51.850;21.698;2024-01-16T12:01:19;4.80;;;2.40;;
50309;SDS011;36207;51.850;21.698;2024-01-16T12:03:46;8.30;;;3.20;;
50309;SDS011;36207;51.850;21.698;2024-01-16T12:06:15;7.50;;;3.30;;
50309;SDS011;36207;51.850;21.698;2024-01-16T12:08:42;9.60;;;3.30;;
50309;SDS011;36207;51.850;21.698;2024-01-16T12:11:08;5.90;;;3.30;;
50309;SDS011;36207;51.850;21.698;2024-01-16T12:13:34;8.30;;;3.60;;
50309;SDS011;36207;51.850;21.698;2024-01-16T12:16:00;6.30;;;3.40;;
50309;SDS011;36207;51.850;21.698;2024-01-16T12:18:27;7.00;;;3.40;;
50309;SDS011;36207;51.850;21.698;2024-01-16T12:20:54;9.00;;;4.20;;
50309;SDS011;36207;51.850;21.698;2024-01-16T12:23:19;8.10;;;3.60;;
50309;SDS011;36207;51.850;21.698;2024-01-16T12:25:51;8.90;;;3.80;;
50309;SDS011;36207;51.850;21.698;2024-01-16T12:28:21;9.90;;;3.70;;
50309;SDS011;36207;51.850;21.698;2024-01-16T12:30:50;9.10;;;3.50;;
50309;SDS011;36207;51.850;21.698;2024-01-16T12:33:20;7.00;;;3.80;;
50309;SDS011;36207;51.850;21.698;2024-01-16T12:35:48;7.30;;;3.80;;
50309;SDS011;36207;51.850;21.698;2024-01-16T12:38:14;7.50;;;3.80;;
50309;SDS011;36207;51.850;21.698;2024-01-16T12:40:43;7.20;;;3.20;;
50309;SDS011;36207;51.850;21.698;2024-01-16T12:43:13;8.40;;;3.50;;
50309;SDS011;36207;51.850;21.698;2024-01-16T12:45:39;7.40;;;3.40;;
50309;SDS011;36207;51.850;21.698;2024-01-16T12:48:05;7.30;;;3.50;;
50309;SDS011;36207;51.850;21.698;2024-01-16T12:50:32;6.40;;;3.20;;
50309;SDS011;36207;51.850;21.698;2024-01-16T12:55:37;8.00;;;3.50;;
50309;SDS011;36207;51.850;21.698;2024-01-16T12:58:18;10.00;;;3.30;;
50309;SDS011;36207;51.850;21.698;2024-01-16T13:00:45;10.10;;;3.80;;
50309;SDS011;36207;51.850;21.698;2024-01-16T13:03:19;10.30;;;3.70;;
50309;SDS011;36207;51.850;21.698;2024-01-16T13:06:00;8.60;;;3.50;;
50309;SDS011;36207;51.850;21.698;2024-01-16T13:08:26;7.60;;;3.50;;
50309;SDS011;36207;51.850;21.698;2024-01-16T13:11:05;8.70;;;3.40;;
50309;SDS011;36207;51.850;21.698;2024-01-16T13:13:32;6.60;;;3.50;;
50309;SDS011;36207;51.850;21.698;2024-01-16T13:16:00;5.60;;;3.30;;
50309;SDS011;36207;51.850;21.698;2024-01-16T13:18:27;8.80;;;3.60;;
50309;SDS011;36207;51.850;21.698;2024-01-16T13:20:55;8.20;;;3.60;;
50309;SDS011;36207;51.850;21.698;2024-01-16T13:23:22;7.10;;;3.50;;
50309;SDS011;36207;51.850;21.698;2024-01-16T13:25:52;8.80;;;3.30;;
50309;SDS011;36207;51.850;21.698;2024-01-16T13:28:24;9.40;;;3.60;;
50309;SDS011;36207;51.850;21.698;2024-01-16T13:30:59;9.80;;;3.90;;
50309;SDS011;36207;51.850;21.698;2024-01-16T13:33:25;7.50;;;3.80;;
50309;SDS011;36207;51.850;21.698;2024-01-16T13:35:52;7.70;;;3.80;;
50309;SDS011;36207;51.850;21.698;2024-01-16T13:38:20;9.00;;;4.00;;
50309;SDS011;36207;51.850;21.698;2024-01-16T13:40:46;9.80;;;3.70;;
50309;SDS011;36207;51.850;21.698;2024-01-16T13:43:13;7.50;;;3.70;;
50309;SDS011;36207;51.850;21.698;2024-01-16T13:45:39;7.40;;;3.80;;
50309;SDS011;36207;51.850;21.698;2024-01-16T13:48:07;7.60;;;3.60;;
50309;SDS011;36207;51.850;21.698;2024-01-16T13:50:35;10.20;;;3.70;;
50309;SDS011;36207;51.850;21.698;2024-01-16T13:53:01;8.10;;;3.60;;
50309;SDS011;36207;51.850;21.698;2024-01-16T13:55:28;8.00;;;3.40;;
50309;SDS011;36207;51.850;21.698;2024-01-16T13:57:54;9.70;;;4.10;;
50309;SDS011;36207;51.850;21.698;2024-01-16T14:00:20;8.90;;;4.20;;
50309;SDS011;36207;51.850;21.698;2024-01-16T14:02:46;10.50;;;4.40;;
50309;SDS011;36207;51.850;21.698;2024-01-16T14:05:15;12.10;;;5.00;;
50309;SDS011;36207;51.850;21.698;2024-01-16T14:07:46;11.80;;;4.60;;
50309;SDS011;36207;51.850;21.698;2024-01-16T14:10:16;10.30;;;4.80;;
50309;SDS011;36207;51.850;21.698;2024-01-16T14:12:44;11.40;;;4.50;;
50309;SDS011;36207;51.850;21.698;2024-01-16T14:15:12;10.80;;;4.20;;
50309;SDS011;36207;51.850;21.698;2024-01-16T14:17:43;6.90;;;3.80;;
50309;SDS011;36207;51.850;21.698;2024-01-16T14:20:20;9.90;;;3.80;;
50309;SDS011;36207;51.850;21.698;2024-01-16T14:22:49;11.50;;;3.90;;
50309;SDS011;36207;51.850;21.698;2024-01-16T14:25:16;8.70;;;3.60;;
50309;SDS011;36207;51.850;21.698;2024-01-16T14:28:03;9.00;;;4.00;;
50309;SDS011;36207;51.850;21.698;2024-01-16T14:30:31;8.80;;;4.10;;
50309;SDS011;36207;51.850;21.698;2024-01-16T14:32:58;8.60;;;4.10;;
50309;SDS011;36207;51.850;21.698;2024-01-16T14:35:24;9.00;;;3.90;;
50309;SDS011;36207;51.850;21.698;2024-01-16T14:37:50;8.60;;;4.10;;
50309;SDS011;36207;51.850;21.698;2024-01-16T14:40:17;8.80;;;3.80;;
50309;SDS011;36207;51.850;21.698;2024-01-16T14:42:46;8.80;;;3.90;;
50309;SDS011;36207;51.850;21.698;2024-01-16T14:45:22;8.10;;;3.60;;
50309;SDS011;36207;51.850;21.698;2024-01-16T14:47:50;9.40;;;3.90;;
50309;SDS011;36207;51.850;21.698;2024-01-16T14:50:19;10.20;;;3.90;;
50309;SDS011;36207;51.850;21.698;2024-01-16T14:52:50;10.90;;;4.70;;